Time;durP1;ratioP1;P1;durP2;ratioP2;P2;SDS_P1;SDS_P2;PMS_P1;PMS_P2;Temp;Humidity;BMP_temperature;BMP_pressure;BME280_temperature;BME280_humidity;BME280_pressure;Samples;Min_cycle;Max_cycle;Signal;HPM_P1;HPM_P2
2023/07/09 00:00:28;;;;;;;47.13;28.08;;;;;;;22.80;44.03;101613.63;4137325;28;20426;-67
2023/07/09 00:02:31;;;;;;;49.33;29.00;;;;;;;22.77;43.72;101625.94;4138582;28;20256;-67
2023/07/09 00:04:33;;;;;;;45.30;28.45;;;;;;;22.75;43.96;101614.34;4138526;28;20292;-66
2023/07/09 00:06:36;;;;;;;45.10;26.97;;;;;;;22.70;44.04;101616.97;4137801;28;20772;-67
2023/07/09 00:08:42;;;;;;;47.20;28.45;;;;;;;22.68;44.22;101622.72;4138939;28;20759;-66
2023/07/09 00:10:44;;;;;;;43.10;25.75;;;;;;;22.63;44.58;101617.09;4138421;28;20324;-67
2023/07/09 00:12:46;;;;;;;40.70;27.35;;;;;;;22.60;44.61;101617.56;4137155;28;20280;-67
2023/07/09 00:14:49;;;;;;;;;;;;;;;22.60;44.63;101617.56;4120834;28;20312;-67
2023/07/09 00:16:51;;;;;;;77.83;33.50;;;;;;;22.61;44.59;101626.66;4136939;28;24656;-67
2023/07/09 00:18:53;;;;;;;47.17;28.10;;;;;;;22.61;44.56;101621.97;4139032;28;20308;-67
2023/07/09 00:20:55;;;;;;;;;;;;;;;22.59;44.80;101618.63;4137802;28;20316;-67
2023/07/09 00:22:57;;;;;;;78.50;33.60;;;;;;;22.55;44.81;101616.56;4136524;28;24524;-66
2023/07/09 00:25:01;;;;;;;53.83;29.48;;;;;;;22.50;45.06;101617.28;4133290;28;20313;-66
2023/07/09 00:27:05;;;;;;;45.80;29.40;;;;;;;22.47;44.95;101617.75;4121757;28;20285;-67
2023/07/09 00:29:10;;;;;;;46.57;28.20;;;;;;;22.42;44.88;101618.44;4137219;28;20299;-66
2023/07/09 00:31:15;;;;;;;44.60;27.30;;;;;;;22.40;45.36;101617.00;4120984;28;20321;-68
2023/07/09 00:33:18;;;;;;;46.67;28.30;;;;;;;22.40;45.36;101619.75;4121515;28;20206;-66
2023/07/09 00:35:21;;;;;;;46.00;26.80;;;;;;;22.38;45.41;101609.00;4128302;28;20320;-67
2023/07/09 00:37:26;;;;;;;46.58;27.50;;;;;;;22.35;45.47;101614.13;4138370;28;20205;-66
2023/07/09 00:39:28;;;;;;;48.58;28.35;;;;;;;22.30;45.41;101615.69;4138202;28;20293;-66
2023/07/09 00:41:33;;;;;;;49.90;28.85;;;;;;;22.26;45.69;101617.19;4138579;28;20320;-64
2023/07/09 00:43:37;;;;;;;45.45;26.58;;;;;;;22.24;45.66;101616.59;4136554;28;20683;-66
2023/07/09 00:45:40;;;;;;;47.22;29.08;;;;;;;22.24;45.93;101613.84;4135720;28;20743;-67
2023/07/09 00:47:45;;;;;;;47.92;27.60;;;;;;;22.20;45.99;101612.59;4138517;28;20327;-66
2023/07/09 00:49:48;;;;;;;51.75;28.85;;;;;;;22.12;46.04;101616.53;4138355;28;20284;-67
2023/07/09 00:51:50;;;;;;;48.25;27.42;;;;;;;22.08;46.52;101611.72;4152569;28;20412;-66
2023/07/09 00:53:58;;;;;;;51.55;29.23;;;;;;;22.00;46.83;101610.13;4137415;28;20714;-66
2023/07/09 00:56:04;;;;;;;49.17;27.52;;;;;;;21.98;47.07;101614.22;4138236;28;20565;-66
2023/07/09 00:58:11;;;;;;;49.90;28.20;;;;;;;21.94;47.04;101606.41;4138522;28;20303;-66
2023/07/09 01:00:15;;;;;;;48.75;28.70;;;;;;;21.93;47.30;101598.41;4137602;28;20304;-66
2023/07/09 01:02:23;;;;;;;48.10;28.00;;;;;;;21.92;47.52;101604.97;4153263;28;20335;-66
2023/07/09 01:04:28;;;;;;;48.53;27.35;;;;;;;21.86;47.26;101598.47;4138512;28;20203;-67
2023/07/09 01:06:34;;;;;;;46.92;26.67;;;;;;;21.81;47.81;101584.56;4137013;28;21754;-66
2023/07/09 01:08:41;;;;;;;45.67;26.48;;;;;;;21.77;48.04;101592.47;4137163;28;20299;-67
2023/07/09 01:10:46;;;;;;;45.57;26.67;;;;;;;21.71;48.28;101587.88;4137588;28;20252;-66
2023/07/09 01:12:49;;;;;;;48.05;27.90;;;;;;;21.64;48.43;101594.53;4120350;28;20309;-68
2023/07/09 01:14:54;;;;;;;47.43;29.40;;;;;;;21.59;48.70;101587.81;4133926;28;20335;-66
2023/07/09 01:17:00;;;;;;;45.50;27.17;;;;;;;21.58;48.76;101591.66;4152445;28;20304;-66
2023/07/09 01:19:04;;;;;;;45.00;27.30;;;;;;;21.53;49.07;101593.38;4152611;28;20286;-66
2023/07/09 01:21:15;;;;;;;46.08;27.35;;;;;;;21.53;49.04;101591.47;4137556;28;20329;-66
2023/07/09 01:23:17;;;;;;;44.50;27.75;;;;;;;21.49;49.59;101594.91;4137688;28;20271;-66
2023/07/09 01:25:18;;;;;;;45.40;26.63;;;;;;;21.45;49.76;101597.25;4138297;28;20233;-66
2023/07/09 01:27:22;;;;;;;43.50;26.80;;;;;;;21.42;49.96;101597.72;4137963;28;20299;-67
2023/07/09 01:29:31;;;;;;;42.90;26.60;;;;;;;21.36;50.11;101598.63;4152800;28;20647;-68
2023/07/09 01:31:35;;;;;;;42.90;26.70;;;;;;;21.33;50.35;101601.81;4136818;28;20420;-66
2023/07/09 01:33:44;;;;;;;43.40;27.00;;;;;;;21.29;50.58;101598.69;4153045;28;20299;-67
2023/07/09 01:35:47;;;;;;;44.30;27.70;;;;;;;21.26;50.78;101596.41;4138321;28;20343;-66
2023/07/09 01:37:51;;;;;;;39.50;25.80;;;;;;;21.25;50.91;101605.69;4138092;28;20609;-66
2023/07/09 01:39:54;;;;;;;;;;;;;;;21.19;51.06;101599.22;4151407;28;20339;-66
2023/07/09 01:41:56;;;;;;;;;;;;;;;21.17;51.34;101603.25;4137972;28;20771;-66
2023/07/09 01:43:58;;;;;;;;;;;;;;;21.16;51.36;101604.31;4138681;28;20304;-66
2023/07/09 01:46:01;;;;;;;75.47;33.47;;;;;;;21.14;51.68;101595.47;4134311;28;24489;-67
2023/07/09 01:48:03;;;;;;;44.15;26.80;;;;;;;21.15;51.70;101598.00;4136799;28;20366;-68
2023/07/09 01:50:06;;;;;;;44.20;28.00;;;;;;;21.13;51.68;101600.13;4136058;28;20324;-66
2023/07/09 01:52:09;;;;;;;;;;;;;;;21.10;51.58;101597.84;4137379;28;20343;-67
2023/07/09 01:54:12;;;;;;;74.10;32.53;;;;;;;21.06;51.86;101591.09;4135670;28;25119;-67
2023/07/09 01:56:15;;;;;;;49.10;32.53;;;;;;;21.04;52.07;101585.84;4152034;28;20307;-66
2023/07/09 01:58:18;;;;;;;42.80;26.50;;;;;;;21.04;52.13;101583.09;4137502;28;20781;-67
2023/07/09 02:00:19;;;;;;;42.50;28.00;;;;;;;21.05;52.29;101586.69;4137493;28;20228;-66
2023/07/09 02:02:25;;;;;;;43.10;28.00;;;;;;;20.93;52.41;101577.53;4136815;28;20237;-68
2023/07/09 02:04:27;;;;;;;43.40;28.30;;;;;;;21.00;52.34;101594.75;4137432;28;20285;-68
2023/07/09 02:06:31;;;;;;;38.45;25.20;;;;;;;20.95;52.56;101589.09;4119628;28;20233;-67
2023/07/09 02:08:34;;;;;;;40.60;26.95;;;;;;;20.95;52.62;101591.84;4151510;28;20295;-67
2023/07/09 02:10:37;;;;;;;45.15;28.65;;;;;;;20.86;52.83;101603.13;4136306;28;20416;-67
2023/07/09 02:12:39;;;;;;;;;;;;;;;20.78;52.91;101603.41;4137366;28;20292;-69
2023/07/09 02:14:42;;;;;;;;;;;;;;;20.76;53.26;101605.53;4151817;28;20308;-68
2023/07/09 02:16:45;;;;;;;73.82;31.92;;;;;;;20.73;52.99;101602.41;4136534;28;20861;-67
2023/07/09 02:18:47;;;;;;;42.60;26.30;;;;;;;20.71;53.40;101599.88;4152699;28;20211;-68
2023/07/09 02:20:49;;;;;;;36.70;27.00;;;;;;;20.69;53.61;101596.53;4151262;28;20755;-68
2023/07/09 02:22:52;;;;;;;40.00;26.70;;;;;;;20.67;53.35;101602.25;4137637;28;20283;-68
2023/07/09 02:24:54;;;;;;;42.30;27.10;;;;;;;20.62;53.74;101599.28;4136756;28;20319;-69
2023/07/09 02:26:58;;;;;;;;;;;;;;;20.58;53.96;101605.44;4135827;28;20224;-68
2023/07/09 02:28:59;;;;;;;72.90;32.00;;;;;;;20.53;54.15;101593.25;4136445;28;20799;-67
2023/07/09 02:31:01;;;;;;;;;;;;;;;20.55;54.37;101606.75;4136841;28;20337;-67
2023/07/09 02:33:03;;;;;;;72.05;31.98;;;;;;;20.54;54.48;101610.53;4150908;28;24556;-68
2023/07/09 02:35:06;;;;;;;;;;;;;;;20.53;54.60;101603.34;4135672;28;20327;-68
2023/07/09 02:37:09;;;;;;;70.03;31.67;;;;;;;20.54;54.60;101610.53;4151196;28;24549;-68
2023/07/09 02:39:11;;;;;;;;;;;;;;;20.53;54.78;101609.69;4137578;28;20302;-68
2023/07/09 02:41:13;;;;;;;68.30;31.52;;;;;;;20.51;54.99;101608.22;4150392;28;24573;-68
2023/07/09 02:43:17;;;;;;;;;;;;;;;20.47;55.05;101615.22;4136341;28;20288;-67
2023/07/09 02:45:19;;;;;;;67.78;31.10;;;;;;;20.44;55.15;101613.78;4150645;28;25065;-69
2023/07/09 02:47:22;;;;;;;;;;;;;;;20.41;55.13;101608.72;4137638;28;20221;-67
2023/07/09 02:49:25;;;;;;;65.72;31.05;;;;;;;20.40;55.32;101612.53;4150679;28;24568;-68
2023/07/09 02:51:27;;;;;;;;;;;;;;;20.42;55.27;101613.13;4134405;28;20329;-67
2023/07/09 02:53:29;;;;;;;65.03;30.65;;;;;;;20.40;55.44;101607.03;4135955;28;25058;-67
2023/07/09 02:55:34;;;;;;;;;;;;;;;20.38;55.72;101608.34;4150868;28;20359;-69
2023/07/09 02:57:36;;;;;;;63.65;30.75;;;;;;;20.34;55.74;101608.78;4149906;28;24542;-68
2023/07/09 02:59:39;;;;;;;;;;;;;;;20.29;55.81;101607.75;4151330;28;20298;-68
2023/07/09 03:01:42;;;;;;;63.13;30.45;;;;;;;20.25;55.57;101603.75;4150115;28;24558;-68
2023/07/09 03:03:44;;;;;;;;;;;;;;;20.22;55.89;101607.81;4152162;28;20312;-68
2023/07/09 03:05:46;;;;;;;57.33;29.10;;;;;;;20.19;56.21;101613.72;4135531;28;25153;-67
2023/07/09 03:07:48;;;;;;;;;;;;;;;20.19;56.32;101615.59;4136746;28;21292;-68
2023/07/09 03:09:50;;;;;;;62.15;30.58;;;;;;;20.22;56.33;101615.16;4133677;28;24553;-68
2023/07/09 03:11:52;;;;;;;;;;;;;;;20.22;56.46;101610.53;4136891;28;20320;-68
2023/07/09 03:13:54;;;;;;;;;;;;;;;20.19;56.59;101616.47;4136124;28;20025;-68
2023/07/09 03:15:58;;;;;;;;;;;;;;;20.16;56.91;101616.91;4136267;28;20563;-67
2023/07/09 03:18:00;;;;;;;;;;;;;;;20.15;57.11;101620.69;4135756;28;20014;-68
2023/07/09 03:20:02;;;;;;;61.30;30.70;;;;;;;20.19;57.16;101619.22;4133876;28;24574;-68
2023/07/09 03:22:04;;;;;;;;;;;;;;;20.26;57.05;101619.16;4149935;28;20323;-69
2023/07/09 03:24:08;;;;;;;49.55;28.05;;;;;;;20.27;57.09;101627.16;4136763;28;20045;-67
2023/07/09 03:26:10;;;;;;;;;;;;;;;20.30;56.94;101617.69;4136332;28;20784;-68
2023/07/09 03:28:12;;;;;;;;;;;;;;;20.29;56.75;101616.81;4137554;28;20391;-69
2023/07/09 03:30:14;;;;;;;;;;;;;;;20.33;56.21;101636.44;4136280;28;20208;-67
2023/07/09 03:32:18;;;;;;;54.75;29.13;;;;;;;20.33;56.11;101628.22;4135132;28;25077;-67
2023/07/09 03:34:20;;;;;;;;;;;;;;;20.30;56.20;101626.72;4136655;28;20757;-69
2023/07/09 03:36:22;;;;;;;;;;;;;;;20.32;56.25;101632.00;4150959;28;20004;-69
2023/07/09 03:38:24;;;;;;;;;;;;;;;20.35;56.31;101631.56;4137145;28;20021;-68
2023/07/09 03:40:26;;;;;;;;;;;;;;;20.37;56.08;101637.66;4151596;28;20012;-68
2023/07/09 03:42:28;;;;;;;;;;;;;;;20.37;56.01;101629.44;4136649;28;20439;-67
2023/07/09 03:44:29;;;;;;;;;;;;;;;20.33;56.21;101628.22;4136660;28;20366;-68
2023/07/09 03:46:31;;;;;;;;;;;;;;;20.29;56.25;101624.22;4136290;28;20013;-67
2023/07/09 03:48:35;;;;;;;;;;;;;;;20.28;56.65;101628.00;4151477;28;20028;-67
2023/07/09 03:50:37;;;;;;;;;;;;;;;20.29;56.58;101630.53;4135867;28;20032;-68
2023/07/09 03:52:39;;;;;;;;;;;;;;;20.33;56.70;101631.78;4135983;28;20451;-68
2023/07/09 03:54:41;;;;;;;;;;;;;;;20.36;56.78;101638.75;4136383;28;20021;-68
2023/07/09 03:56:43;;;;;;;;;;;;;;;20.41;56.73;101636.16;4137003;28;20023;-68
2023/07/09 03:58:44;;;;;;;;;;;;;;;20.43;56.71;101628.53;4151925;28;19993;-68
2023/07/09 04:00:45;;;;;;;;;;;;;;;20.44;56.53;101635.72;4134661;28;20028;-69
2023/07/09 04:02:47;;;;;;;;;;;;;;;20.44;56.40;101643.97;4136246;28;19925;-68
2023/07/09 04:04:51;;;;;;;;;;;;;;;20.42;56.04;101640.56;4136495;28;20350;-68
2023/07/09 04:06:53;;;;;;;;;;;;;;;20.46;55.91;101633.59;4136436;28;20456;-68
2023/07/09 04:08:55;;;;;;;;;;;;;;;20.51;55.34;101643.91;4136116;28;20347;-69
2023/07/09 04:10:59;;;;;;;;;;;;;;;20.53;55.15;101636.28;4135723;28;20016;-69
2023/07/09 04:13:01;;;;;;;;;;;;;;;20.55;54.64;101636.91;4135760;28;20013;-67
2023/07/09 04:15:04;;;;;;;;;;;;;;;20.57;54.24;101631.22;4136236;28;20020;-67
2023/07/09 04:17:06;;;;;;;;;;;;;;;20.61;54.19;101637.91;4135611;28;20020;-67
2023/07/09 04:19:08;;;;;;;;;;;;;;;20.64;54.36;101645.72;4136323;28;20008;-68
2023/07/09 04:21:11;;;;;;;;;;;;;;;20.67;53.96;101640.66;4136223;28;20004;-67
2023/07/09 04:23:13;;;;;;;;;;;;;;;20.71;53.82;101657.53;4136240;28;20032;-69
2023/07/09 04:25:15;;;;;;;;;;;;;;;20.72;53.52;101650.97;4135814;28;20717;-67
2023/07/09 04:27:17;;;;;;;;;;;;;;;20.71;53.46;101649.28;4136166;28;20008;-68
2023/07/09 04:29:19;;;;;;;;;;;;;;;20.71;53.44;101654.78;4137542;28;20037;-69
2023/07/09 04:31:21;;;;;;;;;;;;;;;20.75;53.35;101650.50;4138589;28;20024;-67
2023/07/09 04:33:23;;;;;;;;;;;;;;;20.79;53.34;101646.25;4138932;28;20013;-67
2023/07/09 04:35:25;;;;;;;;;;;;;;;20.82;53.22;101645.81;4138321;28;20466;-65
2023/07/09 04:37:28;;;;;;;;;;;;;;;20.84;53.32;101646.44;4138158;28;20017;-67
2023/07/09 04:39:32;;;;;;;;;;;;;;;20.87;53.08;101639.66;4137875;28;20020;-67
2023/07/09 04:41:35;;;;;;;58.47;29.98;;;;;;;20.88;53.52;101641.34;4136267;28;24548;-67
2023/07/09 04:43:37;;;;;;;;;;;;;;;20.90;53.23;101647.44;4139211;28;20745;-67
2023/07/09 04:45:41;;;;;;;;;;;;;;;20.90;53.07;101641.97;4138255;28;20299;-67
2023/07/09 04:47:43;;;;;;;;;;;;;;;20.92;53.31;101647.22;4138915;28;20016;-67
2023/07/09 04:49:45;;;;;;;;;;;;;;;20.94;53.24;101643.19;4138048;28;20442;-69
2023/07/09 04:51:47;;;;;;;;;;;;;;;20.94;52.97;101647.81;4138445;28;20020;-67
2023/07/09 04:53:51;;;;;;;;;;;;;;;20.94;53.27;101645.94;4137972;28;20011;-66
2023/07/09 04:55:54;;;;;;;;;;;;;;;20.94;53.28;101645.09;4137943;28;20017;-69
2023/07/09 04:57:57;;;;;;;;;;;;;;;20.96;53.57;101652.03;4139005;28;20012;-67
2023/07/09 04:59:59;;;;;;;;;;;;;;;20.97;53.61;101648.25;4138359;28;20013;-67
2023/07/09 05:02:01;;;;;;;;;;;;;;;21.02;53.64;101653.06;4139743;28;20339;-67
2023/07/09 05:04:03;;;;;;;;;;;;;;;21.06;53.36;101643.28;4137639;28;20008;-67
2023/07/09 05:06:05;;;;;;;;;;;;;;;21.15;53.18;101643.84;4137965;28;20000;-68
2023/07/09 05:08:07;;;;;;;;;;;;;;;21.19;53.31;101634.06;4139088;28;20056;-67
2023/07/09 05:10:11;;;;;;;;;;;;;;;21.24;53.14;101650.75;4137822;28;19922;-67
2023/07/09 05:12:13;;;;;;;;;;;;;;;21.26;53.33;101643.09;4138274;28;20021;-67
2023/07/09 05:14:15;;;;;;;;;;;;;;;21.28;53.52;101646.47;4138246;28;20012;-67
2023/07/09 05:16:16;;;;;;;;;;;;;;;21.30;53.50;101646.22;4137949;28;20020;-67
2023/07/09 05:18:19;;;;;;;;;;;;;;;21.30;53.65;101644.34;4138951;28;20012;-69
2023/07/09 05:20:22;;;;;;;;;;;;;;;21.32;53.84;101658.69;4137343;28;20024;-67
2023/07/09 05:22:24;;;;;;;;;;;;;;;21.36;53.74;101648.94;4138358;28;20016;-67
2023/07/09 05:24:26;;;;;;;;;;;;;;;21.45;53.34;101645.88;4138281;28;20016;-66
2023/07/09 05:26:29;;;;;;;;;;;;;;;21.51;52.91;101643.09;4138258;28;20012;-66
2023/07/09 05:28:32;;;;;;;;;;;;;;;21.57;52.17;101644.09;4138241;28;20404;-68
2023/07/09 05:30:34;;;;;;;;;;;;;;;21.62;51.92;101651.66;4137346;28;20028;-66
2023/07/09 05:32:37;;;;;;;;;;;;;;;21.67;51.54;101654.56;4138206;28;20008;-66
2023/07/09 05:34:39;;;;;;;;;;;;;;;21.73;50.98;101648.13;4138101;28;20000;-67
2023/07/09 05:36:41;;;;;;;;;;;;;;;21.78;50.91;101656.53;4137957;28;19921;-66
2023/07/09 05:38:42;;;;;;;;;;;;;;;21.85;50.74;101654.56;4137952;28;20020;-67
2023/07/09 05:40:44;;;;;;;;;;;;;;;21.87;50.57;101649.66;4136991;28;20405;-67
2023/07/09 05:42:47;;;;;;;;;;;;;;;21.92;50.54;101648.97;4138160;28;20032;-67
2023/07/09 05:44:49;;;;;;;;;;;;;;;21.95;50.46;101652.06;4137357;28;20024;-67
2023/07/09 05:46:51;;;;;;;;;;;;;;;22.01;50.47;101660.50;4137562;28;20020;-68
2023/07/09 05:48:53;;;;;;;;;;;;;;;22.03;50.66;101652.84;4137741;28;20029;-67
2023/07/09 05:50:54;;;;;;;;;;;;;;;22.09;50.63;101654.66;4136948;28;19941;-66
2023/07/09 05:52:56;;;;;;;;;;;;;;;22.12;50.60;101651.47;4137308;28;20020;-67
2023/07/09 05:54:59;;;;;;;;;;;;;;;22.16;50.29;101655.41;4137518;28;20012;-67
2023/07/09 05:57:01;;;;;;;;;;;;;;;22.19;49.96;101651.34;4138028;28;20100;-66
2023/07/09 05:59:04;;;;;;;;;;;;;;;22.22;49.93;101654.47;4137773;28;20012;-67
2023/07/09 06:01:06;;;;;;;;;;;;;;;22.25;49.99;101655.94;4137172;28;20052;-67
2023/07/09 06:03:08;;;;;;;;;;;;;;;22.28;50.12;101658.22;4138093;28;20016;-66
2023/07/09 06:05:10;;;;;;;;;;;;;;;22.34;50.02;101656.50;4137169;28;20335;-66
2023/07/09 06:07:13;;;;;;;;;;;;;;;22.38;50.23;101653.03;4137337;28;20004;-67
2023/07/09 06:09:15;;;;;;;;;;;;;;;22.43;50.14;101649.56;4137453;28;20048;-66
2023/07/09 06:11:18;;;;;;;;;;;;;;;22.45;49.67;101655.69;4136926;28;19968;-67
2023/07/09 06:13:20;;;;;;;60.47;30.20;;;;;;;22.49;49.75;101643.13;4135017;28;24533;-67
2023/07/09 06:15:24;;;;;;;;;;;;;;;22.55;49.47;101652.34;4136244;28;20330;-66
2023/07/09 06:17:26;;;;;;;;;;;;;;;22.58;49.37;101655.47;4138470;28;20025;-66
2023/07/09 06:19:28;;;;;;;;;;;;;;;22.62;49.35;101656.69;4136975;28;20016;-66
2023/07/09 06:21:30;;;;;;;;;;;;;;;22.63;49.58;101652.00;4136802;28;20004;-66
2023/07/09 06:23:32;;;;;;;;;;;;;;;22.68;49.45;101655.75;4136560;28;20372;-67
2023/07/09 06:25:34;;;;;;;;;;;;;;;22.73;49.66;101649.53;4138189;28;20013;-67
2023/07/09 06:27:36;;;;;;;;;;;;;;;22.75;49.30;101652.06;4137865;28;20012;-68
2023/07/09 06:29:39;;;;;;;62.97;31.10;;;;;;;22.80;49.55;101646.66;4150042;28;24606;-69
2023/07/09 06:31:42;;;;;;;;;;;;;;;22.86;49.59;101651.22;4135743;28;20229;-66
2023/07/09 06:33:44;;;;;;;;;;;;;;;22.90;49.56;101657.09;4137278;28;20004;-66
2023/07/09 06:35:47;;;;;;;;;;;;;;;22.93;49.39;101654.72;4137201;28;20766;-67
2023/07/09 06:37:49;;;;;;;;;;;;;;;22.94;48.73;101659.13;4120126;28;20090;-67
2023/07/09 06:39:51;;;;;;;64.32;31.65;;;;;;;22.99;48.99;101664.78;4134414;28;24556;-67
2023/07/09 06:41:53;;;;;;;;;;;;;;;23.03;49.02;101663.22;4137105;28;20308;-67
2023/07/09 06:44:22;;;;;;;51.90;29.00;;;;;;;23.07;48.89;101660.00;4128226;28;20008;-67
2023/07/09 06:46:24;;;;;;;;;;;;;;;23.10;49.25;101668.63;4136766;28;20731;-67
2023/07/09 06:48:28;;;;;;;;;;;;;;;23.12;48.77;101666.50;4137164;28;20012;-67
2023/07/09 06:50:30;;;;;;;;;;;;;;;23.13;48.75;101668.16;4136039;28;20368;-67
2023/07/09 06:52:32;;;;;;;62.90;30.58;;;;;;;23.15;48.49;101668.78;4134414;28;25113;-67
2023/07/09 06:54:34;;;;;;;;;;;;;;;23.17;48.55;101663.88;4134861;28;20727;-67
2023/07/09 06:56:37;;;;;;;52.65;28.73;;;;;;;23.21;48.85;101661.47;4135970;28;20536;-68
2023/07/09 06:58:39;;;;;;;;;;;;;;;23.25;48.96;101670.13;4135896;28;20288;-68
2023/07/09 07:00:41;;;;;;;;;;;;;;;23.29;49.15;101663.03;4135975;28;20032;-67
2023/07/09 07:02:43;;;;;;;64.47;31.35;;;;;;;23.33;49.25;101675.25;4134649;28;24529;-66
2023/07/09 07:04:46;;;;;;;;;;;;;;;23.37;49.10;101668.19;4135289;28;20223;-68
2023/07/09 07:06:48;;;;;;;;;;;;;;;23.41;49.25;101665.78;4136587;28;20024;-67
2023/07/09 07:08:52;;;;;;;63.78;30.48;;;;;;;23.44;49.26;101659.78;4135693;28;24533;-68
2023/07/09 07:11:01;;;;;;;;;;;;;;;23.48;49.21;101661.84;4135523;28;20774;-68
2023/07/09 07:13:03;;;;;;;;;;;;;;;23.53;49.13;101663.88;4136755;28;19936;-67
2023/07/09 07:15:06;;;;;;;64.55;31.13;;;;;;;23.55;48.98;101661.69;4135465;28;24438;-68
2023/07/09 07:17:08;;;;;;;;;;;;;;;23.60;49.12;101660.97;4136627;28;20300;-68
2023/07/09 07:19:10;;;;;;;;;;;;;;;23.64;48.91;101667.69;4137200;28;20624;-67
2023/07/09 07:21:14;;;;;;;64.68;30.48;;;;;;;23.68;48.74;101664.22;4133130;28;24474;-71
2023/07/09 07:23:16;;;;;;;;;;;;;;;23.72;48.87;101668.13;4136223;28;20978;-68
2023/07/09 07:25:18;;;;;;;65.97;31.98;;;;;;;23.76;48.45;101660.22;4132939;28;24562;-68
2023/07/09 07:27:20;;;;;;;;;;;;;;;23.81;48.49;101668.63;4137300;28;20292;-66
2023/07/09 07:29:22;;;;;;;65.57;31.30;;;;;;;23.85;48.50;101668.97;4150162;28;24932;-68
2023/07/09 07:31:25;;;;;;;;;;;;;;;23.89;48.48;101667.44;4135529;28;20323;-67
2023/07/09 07:33:30;;;;;;;64.68;31.25;;;;;;;23.91;48.45;101670.78;4134891;28;24860;-67
2023/07/09 07:35:32;;;;;;;;;;;;;;;23.93;48.48;101669.44;4150948;28;20311;-67
2023/07/09 07:37:36;;;;;;;65.00;31.13;;;;;;;23.97;48.66;101661.53;4135480;28;24879;-67
2023/07/09 07:39:38;;;;;;;;;;;;;;;24.00;48.17;101672.06;4136291;28;20280;-67
2023/07/09 07:41:40;;;;;;;65.72;31.30;;;;;;;24.01;48.45;101662.72;4134398;28;24893;-68
2023/07/09 07:43:42;;;;;;;;;;;;;;;24.04;48.59;101659.44;4137019;28;20284;-68
2023/07/09 07:45:45;;;;;;;66.38;32.15;;;;;;;24.08;48.02;101668.09;4134844;28;24951;-67
2023/07/09 07:47:47;;;;;;;;;;;;;;;24.09;48.11;101661.47;4136265;28;20293;-68
2023/07/09 07:49:49;;;;;;;63.67;31.70;;;;;;;24.11;48.14;101665.66;4134779;28;24565;-68
2023/07/09 07:51:50;;;;;;;;;;;;;;;24.15;48.33;101659.66;4136024;28;20324;-68
2023/07/09 07:53:54;;;;;;;57.03;30.73;;;;;;;24.17;48.05;101663.00;4136038;28;20016;-69
2023/07/09 07:55:57;;;;;;;;;;;;;;;24.21;48.21;101653.16;4136518;28;20319;-69
2023/07/09 07:58:02;;;;;;;;;;;;;;;24.22;48.12;101655.66;4136204;28;20028;-69
2023/07/09 08:00:05;;;;;;;;;;;;;;;24.24;48.24;101658.19;4136156;28;20021;-67
2023/07/09 08:02:15;;;;;;;60.03;30.13;;;;;;;24.27;48.04;101664.03;4135619;28;24542;-67
2023/07/09 08:04:19;;;;;;;;;;;;;;;24.33;47.76;101664.97;4138411;28;20279;-68
2023/07/09 08:06:21;;;;;;;;;;;;;;;24.36;47.81;101663.66;4134958;28;20016;-68
2023/07/09 08:08:23;;;;;;;;;;;;;;;24.39;48.05;101661.25;4136167;28;20948;-68
2023/07/09 08:10:27;;;;;;;59.00;31.83;;;;;;;24.43;47.66;101665.16;4133344;28;25058;-69
2023/07/09 08:12:29;;;;;;;;;;;;;;;24.46;47.55;101655.56;4136596;28;20308;-67
2023/07/09 08:14:31;;;;;;;;;;;;;;;24.49;47.40;101660.59;4137523;28;19921;-67
2023/07/09 08:16:33;;;;;;;;;;;;;;;24.51;47.22;101661.16;4137512;28;20012;-67
2023/07/09 08:18:34;;;;;;;;;;;;;;;24.55;47.49;101664.28;4139042;28;20004;-67
2023/07/09 08:20:36;;;;;;;;;;;;;;;24.59;47.37;101668.25;4137999;28;20319;-67
2023/07/09 08:22:38;;;;;;;;;;;;;;;24.61;47.22;101666.09;4138858;28;20012;-67
2023/07/09 08:24:40;;;;;;;;;;;;;;;24.63;47.10;101661.97;4138783;28;20016;-67
2023/07/09 08:26:44;;;;;;;;;;;;;;;24.64;47.09;101663.66;4139024;28;20025;-67
2023/07/09 08:28:46;;;;;;;;;;;;;;;24.71;47.00;101670.94;4139205;28;20004;-68
2023/07/09 08:30:48;;;;;;;61.88;30.88;;;;;;;24.73;47.12;101669.59;4136718;28;24534;-68
2023/07/09 08:32:50;;;;;;;;;;;;;;;24.79;46.46;101665.81;4139092;28;20600;-67
2023/07/09 08:34:52;;;;;;;;;;;;;;;24.81;46.66;101671.97;4153043;28;19921;-68
2023/07/09 08:36:54;;;;;;;;;;;;;;;24.81;46.57;101669.19;4139424;28;20443;-68
2023/07/09 08:38:56;;;;;;;;;;;;;;;24.83;46.78;101666.19;4139113;28;20011;-67
2023/07/09 08:40:59;;;;;;;;;;;;;;;24.83;46.80;101664.25;4138071;28;20332;-67
2023/07/09 08:43:03;;;;;;;;;;;;;;;24.86;46.71;101665.69;4139126;28;20016;-67
2023/07/09 08:45:11;;;;;;;;;;;;;;;24.89;46.42;101654.13;4137104;28;20024;-67
2023/07/09 08:47:15;;;;;;;;;;;;;;;24.91;46.71;101653.88;4138476;28;20364;-67
2023/07/09 08:49:31;;;;;;;61.33;30.70;;;;;;;24.95;46.69;101660.56;4136474;28;24529;-70
2023/07/09 08:51:34;;;;;;;;;;;;;;;24.98;46.46;101652.63;4138003;28;20328;-67
2023/07/09 08:53:37;;;;;;;;;;;;;;;24.99;46.31;101653.47;4139124;28;20039;-68
2023/07/09 08:55:41;;;;;;;;;;;;;;;24.99;46.43;101656.22;4138958;28;20450;-67
2023/07/09 08:57:44;;;;;;;;;;;;;;;25.03;46.19;101646.31;4138207;28;20020;-68
2023/07/09 08:59:48;;;;;;;;;;;;;;;25.03;46.40;101651.84;4138313;28;20020;-69
2023/07/09 09:01:52;;;;;;;58.47;29.85;;;;;;;25.07;46.13;101649.44;4137437;28;24552;-67
2023/07/09 09:03:54;;;;;;;;;;;;;;;25.10;46.06;101648.94;4139072;28;20323;-67
2023/07/09 09:05:56;;;;;;;;;;;;;;;25.12;46.10;101649.50;4137479;28;20053;-67
2023/07/09 09:08:00;;;;;;;;;;;;;;;25.14;46.27;101644.56;4138166;28;20029;-67
2023/07/09 09:10:03;;;;;;;;;;;;;;;25.15;45.98;101638.78;4137881;28;20012;-67
2023/07/09 09:12:09;;;;;;;;;;;;;;;25.17;46.07;101641.28;4138463;28;20016;-68
2023/07/09 09:14:19;;;;;;;;;;;;;;;25.18;45.74;101638.25;4137798;28;20024;-68
2023/07/09 09:16:27;;;;;;;60.58;30.33;;;;;;;25.23;45.65;101640.28;4136384;28;24430;-67
2023/07/09 09:18:29;;;;;;;;;;;;;;;25.26;45.59;101637.00;4138285;28;20284;-67
2023/07/09 09:20:31;;;;;;;55.10;29.20;;;;;;;25.26;45.42;101644.47;4136706;28;20016;-68
2023/07/09 09:22:34;;;;;;;;;;;;;;;25.28;45.75;101639.50;4138603;28;20328;-68
2023/07/09 09:24:37;;;;;;;;;;;;;;;25.31;44.94;101634.38;4138599;28;20013;-67
2023/07/09 09:26:39;;;;;;;;;;;;;;;25.33;45.36;101642.41;4137949;28;20013;-67
2023/07/09 09:28:41;;;;;;;60.40;30.60;;;;;;;25.34;44.71;101650.44;4136103;28;24537;-67
2023/07/09 09:30:43;;;;;;;;;;;;;;;25.35;45.07;101649.34;4136007;28;20319;-66
2023/07/09 09:32:48;;;;;;;;;;;;;;;25.37;44.65;101649.06;4138000;28;20052;-66
2023/07/09 09:34:50;;;;;;;;;;;;;;;25.36;44.70;101648.25;4137821;28;20434;-67
2023/07/09 09:36:52;;;;;;;;;;;;;;;25.39;44.63;101651.59;4138390;28;20020;-66
2023/07/09 09:38:54;;;;;;;;;;;;;;;25.40;44.68;101645.81;4138208;28;20020;-66
2023/07/09 09:41:00;;;;;;;;;;;;;;;25.45;44.16;101647.81;4136524;28;20020;-67
2023/07/09 09:43:03;;;;;;;;;;;;;;;25.46;43.54;101650.31;4138023;28;20016;-66
2023/07/09 09:45:09;;;;;;;;;;;;;;;25.47;43.39;101652.00;4137686;28;20336;-66
2023/07/09 09:47:11;;;;;;;60.15;30.50;;;;;;;25.48;43.41;101650.88;4135749;28;25103;-66
2023/07/09 09:49:15;;;;;;;;;;;;;;;25.49;43.08;101647.03;4138171;28;20281;-66
2023/07/09 09:51:17;;;;;;;;;;;;;;;25.50;43.46;101650.63;4136815;28;20022;-66
2023/07/09 09:53:20;;;;;;;;;;;;;;;25.51;43.01;101650.38;4137679;28;20024;-67
2023/07/09 09:55:24;;;;;;;59.47;29.85;;;;;;;25.52;42.68;101642.94;4150207;28;25098;-69
2023/07/09 09:57:28;;;;;;;;;;;;;;;25.55;42.78;101645.19;4137807;28;20724;-66
2023/07/09 09:59:31;;;;;;;;;;;;;;;25.54;43.05;101652.63;4137389;28;20017;-67
2023/07/09 10:01:35;;;;;;;;;;;;;;;25.55;42.97;101642.44;4137580;28;20017;-66
2023/07/09 10:03:37;;;;;;;;;;;;;;;25.57;43.16;101645.75;4137830;28;20012;-66